Time;durP1;ratioP1;P1;durP2;ratioP2;P2;SDS_P1;SDS_P2;PMS_P1;PMS_P2;Temp;Humidity;BMP_temperature;BMP_pressure;BME280_temperature;BME280_humidity;BME280_pressure;Samples;Min_cycle;Max_cycle;Signal;HPM_P1;HPM_P2
2023/05/12 00:00:15;;;;;;;5.95;5.53;;;;;;;9.29;70.43;95127.88;5074760;28;20193;-71
2023/05/12 00:02:44;;;;;;;6.47;6.05;;;;;;;9.36;71.44;95117.09;5073730;28;20197;-71
2023/05/12 00:05:11;;;;;;;5.78;5.38;;;;;;;9.36;70.82;95125.34;5074432;28;20601;-71
2023/05/12 00:07:38;;;;;;;6.47;5.97;;;;;;;9.37;71.01;95123.41;5074085;28;20201;-71
2023/05/12 00:10:08;;;;;;;6.00;5.60;;;;;;;9.40;70.40;95125.47;5074211;28;20656;-71
2023/05/12 00:12:34;;;;;;;6.60;6.10;;;;;;;9.42;70.60;95125.13;5073569;28;20275;-71
2023/05/12 00:15:01;;;;;;;5.78;5.28;;;;;;;9.34;70.79;95122.16;5074403;28;20197;-71
2023/05/12 00:17:29;;;;;;;5.75;5.32;;;;;;;9.32;70.55;95121.69;5073840;28;20228;-71
2023/05/12 00:19:57;;;;;;;5.75;5.32;;;;;;;9.40;70.09;95129.03;5074647;28;20209;-72
2023/05/12 00:22:25;;;;;;;5.30;5.00;;;;;;;9.31;69.96;95119.28;5077169;28;20201;-71
2023/05/12 00:24:54;;;;;;;5.05;4.75;;;;;;;9.27;70.48;95126.63;5076997;28;20205;-71
2023/05/12 00:27:20;;;;;;;6.00;5.53;;;;;;;9.24;70.35;95122.59;5077338;28;20205;-71
2023/05/12 00:29:48;;;;;;;5.50;5.10;;;;;;;9.27;70.41;95121.13;5077976;28;20204;-71
2023/05/12 00:32:16;;;;;;;5.30;4.90;;;;;;;9.25;70.97;95134.41;5077602;28;20567;-71
2023/05/12 00:34:47;;;;;;;5.65;5.20;;;;;;;9.22;71.45;95132.34;5077875;28;20254;-71
2023/05/12 00:37:17;;;;;;;5.07;4.68;;;;;;;9.20;71.01;95124.44;5078520;28;20215;-71
2023/05/12 00:39:47;;;;;;;5.35;4.85;;;;;;;9.14;71.35;95136.81;5077018;28;20288;-71
2023/05/12 00:42:14;;;;;;;5.43;5.03;;;;;;;9.12;72.16;95128.91;5077062;28;20243;-71
2023/05/12 00:44:43;;;;;;;5.13;4.72;;;;;;;9.17;71.72;95141.63;5076741;28;20205;-71
2023/05/12 00:47:12;;;;;;;5.45;5.05;;;;;;;9.10;71.97;95133.13;5076751;28;20196;-71
2023/05/12 00:49:41;;;;;;;5.75;5.25;;;;;;;9.09;72.68;95142.53;5077079;28;20189;-71
2023/05/12 00:52:12;;;;;;;5.75;5.30;;;;;;;9.02;73.25;95145.03;5076957;28;20188;-70
2023/05/12 00:54:42;;;;;;;6.07;5.57;;;;;;;9.06;72.95;95143.22;5076403;28;20192;-70
2023/05/12 00:57:10;;;;;;;5.85;5.35;;;;;;;9.11;73.00;95149.31;5076454;28;20224;-70
2023/05/12 01:00:15;;;;;;;5.85;5.20;;;;;;;9.02;73.12;95142.28;5076662;28;20601;-71
2023/05/12 01:03:20;;;;;;;6.20;5.60;;;;;;;8.99;73.39;95149.28;5078016;28;20192;-71
2023/05/12 01:06:27;;;;;;;5.78;5.32;;;;;;;9.00;73.77;95145.38;5079210;28;20219;-70
2023/05/12 01:09:32;;;;;;;5.97;5.40;;;;;;;8.98;74.07;95144.94;5077428;28;20292;-70
2023/05/12 01:12:36;;;;;;;6.13;5.63;;;;;;;8.87;74.42;95144.56;5077486;28;20321;-70
2023/05/12 01:15:44;;;;;;;5.88;5.40;;;;;;;8.84;74.88;95144.44;5077617;28;20208;-70
2023/05/12 01:18:50;;;;;;;6.43;5.65;;;;;;;8.81;75.53;95143.16;5076667;28;20229;-70
2023/05/12 01:21:58;;;;;;;6.15;5.75;;;;;;;8.73;75.10;95152.31;5076817;28;20219;-71
2023/05/12 01:25:02;;;;;;;6.43;5.85;;;;;;;8.71;75.63;95153.78;5076263;28;20196;-70
2023/05/12 01:28:06;;;;;;;6.05;5.47;;;;;;;8.62;76.26;95151.13;5076308;28;20204;-70
2023/05/12 01:31:12;;;;;;;6.60;6.10;;;;;;;8.65;76.74;95155.94;5077442;28;20197;-70
2023/05/12 01:34:18;;;;;;;6.25;5.75;;;;;;;8.52;76.60;95157.84;5077085;28;20189;-70
2023/05/12 01:37:25;;;;;;;5.95;5.55;;;;;;;8.43;77.40;95155.19;5076808;28;20196;-70
2023/05/12 01:40:32;;;;;;;6.50;6.00;;;;;;;8.37;76.83;95150.19;5076101;28;20304;-70
2023/05/12 01:43:37;;;;;;;6.20;5.60;;;;;;;8.32;77.10;95150.41;5076763;28;20220;-70
2023/05/12 01:46:42;;;;;;;5.60;5.20;;;;;;;8.37;76.87;95155.69;5076828;28;20199;-70
2023/05/12 01:49:53;;;;;;;5.85;5.43;;;;;;;8.37;77.02;95159.25;5076628;28;20197;-70
2023/05/12 01:53:01;;;;;;;5.43;5.03;;;;;;;8.37;76.89;95151.00;5076426;28;20185;-70
2023/05/12 01:56:09;;;;;;;6.20;5.70;;;;;;;8.20;77.56;95151.13;5075406;28;20200;-70
2023/05/12 01:59:13;;;;;;;6.10;5.60;;;;;;;8.27;77.48;95147.84;5075275;28;20209;-71
2023/05/12 02:01:44;;;;;;;5.88;5.47;;;;;;;8.31;77.60;95157.03;5075929;28;20601;-71
2023/05/12 02:04:12;;;;;;;6.40;5.47;;;;;;;8.33;77.87;95146.50;5076198;28;20197;-71
2023/05/12 02:06:42;;;;;;;5.97;5.47;;;;;;;8.20;78.11;95157.41;5075252;28;20197;-71
2023/05/12 02:09:10;;;;;;;6.40;5.80;;;;;;;8.23;78.24;95144.97;5076414;28;20284;-71
2023/05/12 02:11:38;;;;;;;5.93;5.45;;;;;;;8.22;78.58;95145.31;5075609;28;20201;-70
2023/05/12 02:14:05;;;;;;;5.95;5.45;;;;;;;8.20;78.12;95140.94;5075016;28;20233;-70
2023/05/12 02:16:33;;;;;;;5.88;5.40;;;;;;;8.22;78.18;95142.56;5074625;28;20200;-70
2023/05/12 02:19:04;;;;;;;5.60;5.20;;;;;;;8.07;78.69;95149.47;5075591;28;20212;-70
2023/05/12 02:21:31;;;;;;;6.15;5.65;;;;;;;8.09;78.90;95152.66;5074930;28;20201;-71
2023/05/12 02:23:58;;;;;;;5.55;5.15;;;;;;;8.13;78.52;95143.44;5074882;28;20200;-71
2023/05/12 02:26:26;;;;;;;4.97;4.57;;;;;;;7.87;78.23;95146.34;5075599;28;20212;-70
2023/05/12 02:28:53;;;;;;;5.07;4.68;;;;;;;7.69;79.20;95142.13;5074743;28;20628;-70
2023/05/12 02:31:21;;;;;;;4.68;4.28;;;;;;;7.70;79.88;95146.50;5074915;28;20185;-70
2023/05/12 02:33:50;;;;;;;5.57;5.18;;;;;;;7.71;79.79;95148.91;5075492;28;20185;-70
2023/05/12 02:36:20;;;;;;;5.65;5.15;;;;;;;7.78;80.39;95142.88;5074963;28;20221;-70
2023/05/12 02:38:47;;;;;;;5.32;4.93;;;;;;;7.76;80.88;95138.84;5074720;28;20205;-70
2023/05/12 02:41:14;;;;;;;5.40;4.90;;;;;;;7.72;81.02;95139.50;5074945;28;20231;-71
2023/05/12 02:43:41;;;;;;;5.22;4.72;;;;;;;7.71;81.11;95142.59;5075155;28;20185;-71
2023/05/12 02:46:08;;;;;;;4.82;4.43;;;;;;;7.69;81.12;95145.66;5074660;28;20197;-71
2023/05/12 02:48:38;;;;;;;4.93;4.03;;;;;;;7.63;81.77;95152.50;5074193;28;20196;-71
2023/05/12 02:51:05;;;;;;;4.50;4.10;;;;;;;7.60;81.62;95142.19;5074419;28;20204;-71
2023/05/12 02:53:33;;;;;;;3.83;3.53;;;;;;;7.61;81.41;95141.03;5075553;28;20204;-71
2023/05/12 02:56:03;;;;;;;3.60;3.40;;;;;;;7.63;81.11;95144.28;5074302;28;20200;-71
2023/05/12 02:58:29;;;;;;;4.03;3.72;;;;;;;7.66;80.64;95154.59;5075353;28;20201;-71
2023/05/12 03:00:57;;;;;;;3.80;3.50;;;;;;;7.74;80.31;95161.16;5075122;28;20263;-71
2023/05/12 03:03:26;;;;;;;3.60;3.30;;;;;;;7.77;80.28;95156.94;5075501;28;20197;-70
2023/05/12 03:05:52;;;;;;;3.83;3.40;;;;;;;7.75;80.19;95161.97;5074435;28;20209;-70
2023/05/12 03:08:21;;;;;;;3.50;3.30;;;;;;;7.83;79.69;95159.16;5074997;28;20177;-70
2023/05/12 03:10:51;;;;;;;3.60;3.30;;;;;;;7.91;79.35;95160.22;5075410;28;20522;-70
2023/05/12 03:13:18;;;;;;;3.30;3.10;;;;;;;7.94;79.20;95156.81;5075026;28;20278;-71
2023/05/12 03:15:48;;;;;;;4.10;3.70;;;;;;;7.92;78.57;95161.84;5074296;28;20212;-71
2023/05/12 03:18:16;;;;;;;4.30;3.90;;;;;;;7.94;78.37;95163.13;5074336;28;20231;-71
2023/05/12 03:20:44;;;;;;;3.95;3.65;;;;;;;7.97;78.48;95165.19;5074552;28;20211;-71
2023/05/12 03:23:12;;;;;;;4.47;4.15;;;;;;;7.99;78.18;95173.13;5074877;28;20185;-71
2023/05/12 03:25:39;;;;;;;4.50;4.13;;;;;;;8.05;78.51;95180.00;5075047;28;20185;-71
2023/05/12 03:28:07;;;;;;;4.18;3.78;;;;;;;8.04;78.33;95186.66;5075047;28;20598;-71
2023/05/12 03:30:34;;;;;;;4.78;4.38;;;;;;;7.94;78.57;95184.28;5074003;28;20197;-72
2023/05/12 03:33:01;;;;;;;4.88;4.45;;;;;;;7.90;79.10;95186.09;5074274;28;20193;-72
2023/05/12 03:35:28;;;;;;;5.15;4.65;;;;;;;7.90;79.26;95177.84;5074938;28;20606;-71
2023/05/12 03:37:57;;;;;;;5.00;4.53;;;;;;;7.86;79.23;95185.16;5073921;28;20225;-71
2023/05/12 03:40:25;;;;;;;5.70;5.20;;;;;;;7.89;79.58;95185.28;5074009;28;20208;-71
2023/05/12 03:42:55;;;;;;;5.80;5.30;;;;;;;7.96;79.14;95188.31;5073961;28;20207;-71
2023/05/12 03:45:25;;;;;;;5.40;4.88;;;;;;;7.94;79.35;95190.56;5073944;28;20291;-71
2023/05/12 03:47:53;;;;;;;5.50;5.00;;;;;;;7.93;79.37;95197.22;5074066;28;20197;-70
2023/05/12 03:50:20;;;;;;;5.78;5.07;;;;;;;7.96;78.98;95191.06;5074139;28;20197;-70
2023/05/12 03:52:54;;;;;;;5.88;5.38;;;;;;;7.96;79.70;95193.81;5073875;28;20208;-70
2023/05/12 03:55:21;;;;;;;5.43;5.03;;;;;;;8.02;79.40;95188.09;5075729;28;20197;-70
2023/05/12 03:57:48;;;;;;;6.25;5.75;;;;;;;7.98;79.44;95190.72;5077724;28;20197;-70
2023/05/12 04:00:15;;;;;;;6.18;5.57;;;;;;;8.03;79.21;95193.28;5078803;28;20251;-70
2023/05/12 04:02:49;;;;;;;6.35;5.60;;;;;;;8.08;79.04;95195.03;5079918;28;20235;-71
2023/05/12 04:05:16;;;;;;;5.90;5.47;;;;;;;8.03;79.09;95193.28;5078257;28;20205;-70
2023/05/12 04:07:47;;;;;;;6.03;5.47;;;;;;;7.97;79.21;95197.34;5077755;28;20271;-69
2023/05/12 04:10:18;;;;;;;5.07;4.60;;;;;;;8.03;79.74;95197.97;5078427;28;20254;-69
2023/05/12 04:12:47;;;;;;;5.60;5.10;;;;;;;8.09;79.88;95196.63;5077033;28;20279;-67
2023/05/12 04:15:16;;;;;;;5.55;5.05;;;;;;;8.23;80.09;95201.88;5078489;28;20700;-70
2023/05/12 04:17:49;;;;;;;5.70;4.78;;;;;;;8.30;79.94;95204.88;5078010;28;20201;-68
2023/05/12 04:20:21;;;;;;;4.97;4.57;;;;;;;8.37;79.27;95200.47;5078281;28;20501;-68
2023/05/12 04:22:51;;;;;;;5.05;4.63;;;;;;;8.36;78.56;95198.06;5077132;28;20201;-68
2023/05/12 04:25:22;;;;;;;5.13;4.63;;;;;;;8.32;78.58;95203.41;5077352;28;20208;-68
2023/05/12 04:27:49;;;;;;;5.15;4.70;;;;;;;8.39;78.74;95203.72;5077012;28;20202;-67
2023/05/12 04:30:18;;;;;;;5.40;5.00;;;;;;;8.37;78.62;95205.97;5076812;28;20197;-68
2023/05/12 04:32:50;;;;;;;5.68;5.18;;;;;;;8.33;78.43;95202.28;5077034;28;20197;-68
2023/05/12 04:35:20;;;;;;;5.35;4.85;;;;;;;8.24;78.62;95198.78;5077081;28;20208;-68
2023/05/12 04:37:48;;;;;;;5.10;4.70;;;;;;;8.15;78.73;95196.09;5077048;28;20282;-68
2023/05/12 04:40:18;;;;;;;5.32;4.93;;;;;;;8.03;79.02;95201.53;5076971;28;20194;-68
2023/05/12 04:42:46;;;;;;;5.03;4.63;;;;;;;7.96;78.89;95207.53;5077701;28;20228;-68
2023/05/12 04:45:17;;;;;;;5.32;4.88;;;;;;;7.94;79.76;95201.56;5076839;28;20205;-68
2023/05/12 04:47:44;;;;;;;5.13;4.60;;;;;;;7.99;79.66;95205.25;5076770;28;20287;-68
2023/05/12 04:50:12;;;;;;;5.03;4.57;;;;;;;7.99;79.70;95206.09;5077747;28;20196;-68
2023/05/12 04:52:39;;;;;;;4.88;4.55;;;;;;;8.01;79.20;95208.47;5077943;28;20213;-68
2023/05/12 04:55:07;;;;;;;5.57;5.18;;;;;;;8.07;79.49;95205.22;5077989;28;20181;-68
2023/05/12 04:57:34;;;;;;;4.70;4.30;;;;;;;8.07;79.83;95207.16;5077746;28;20220;-67
2023/05/12 05:00:04;;;;;;;4.75;4.35;;;;;;;8.07;79.52;95205.22;5077848;28;20251;-68
2023/05/12 05:02:32;;;;;;;5.57;5.05;;;;;;;8.12;79.74;95207.75;5077239;28;20197;-68
2023/05/12 05:05:00;;;;;;;5.32;4.82;;;;;;;8.23;79.57;95207.34;5077562;28;20197;-68
2023/05/12 05:07:30;;;;;;;5.13;4.72;;;;;;;8.31;79.50;95209.22;5076735;28;20185;-67
2023/05/12 05:09:58;;;;;;;5.15;4.75;;;;;;;8.30;78.64;95210.38;5076993;28;20177;-67
2023/05/12 05:12:27;;;;;;;4.93;4.53;;;;;;;8.23;78.90;95204.63;5076505;28;20229;-66
2023/05/12 05:14:54;;;;;;;4.63;4.28;;;;;;;8.22;79.54;95203.81;5076426;28;20537;-66
2023/05/12 05:17:24;;;;;;;5.28;4.78;;;;;;;8.24;79.68;95204.25;5076420;28;20185;-66
2023/05/12 05:19:50;;;;;;;5.18;4.78;;;;;;;8.24;79.54;95206.22;5076475;28;20258;-66
2023/05/12 05:22:17;;;;;;;4.72;4.38;;;;;;;8.16;79.41;95208.69;5076320;28;20189;-66
2023/05/12 05:24:48;;;;;;;4.90;4.50;;;;;;;8.14;80.03;95205.47;5075981;28;20201;-66
2023/05/12 05:27:15;;;;;;;5.05;4.65;;;;;;;8.19;79.74;95215.47;5075944;28;20497;-66
2023/05/12 05:29:43;;;;;;;5.47;4.97;;;;;;;8.28;79.39;95216.22;5076042;28;20195;-66
2023/05/12 05:32:10;;;;;;;5.10;4.70;;;;;;;8.32;79.25;95219.09;5076198;28;20197;-66
2023/05/12 05:35:14;;;;;;;5.38;4.97;;;;;;;8.32;79.27;95219.09;5075587;28;20643;-66
2023/05/12 05:38:19;;;;;;;5.75;5.20;;;;;;;8.29;79.72;95220.56;5076008;28;20192;-66
2023/05/12 05:41:25;;;;;;;5.00;4.60;;;;;;;8.23;79.87;95216.41;5076379;28;20254;-66
2023/05/12 05:44:29;;;;;;;5.40;5.00;;;;;;;8.20;80.30;95225.31;5075708;28;20231;-66
2023/05/12 05:47:33;;;;;;;5.35;4.95;;;;;;;8.12;80.74;95220.69;5076609;28;20201;-66
2023/05/12 05:50:37;;;;;;;7.03;6.43;;;;;;;8.19;80.08;95216.25;5075836;28;20204;-66
2023/05/12 05:53:47;;;;;;;6.28;5.78;;;;;;;8.25;80.15;95219.63;5076644;28;20197;-66
2023/05/12 05:56:51;;;;;;;5.35;4.95;;;;;;;8.20;80.22;95225.31;5075663;28;20228;-66
2023/05/12 06:00:00;;;;;;;5.45;5.05;;;;;;;8.23;80.34;95218.34;5074963;28;20619;-66
2023/05/12 06:03:04;;;;;;;5.60;5.07;;;;;;;8.19;80.39;95224.50;5076248;28;20276;-66
2023/05/12 06:06:08;;;;;;;5.43;4.95;;;;;;;8.10;80.37;95226.53;5076344;28;20184;-66
2023/05/12 06:09:17;;;;;;;5.53;5.13;;;;;;;8.11;80.57;95235.56;5074931;28;20196;-66
2023/05/12 06:12:21;;;;;;;5.90;5.40;;;;;;;8.24;80.14;95230.94;5075802;28;20632;-66
2023/05/12 06:15:26;;;;;;;6.25;5.63;;;;;;;8.29;80.33;95230.75;5076088;28;20185;-66
2023/05/12 06:18:32;;;;;;;5.85;5.35;;;;;;;8.29;80.13;95237.06;5074159;28;20229;-66
2023/05/12 06:21:36;;;;;;;6.47;5.80;;;;;;;8.28;80.21;95240.97;5076317;28;20203;-71
2023/05/12 06:24:40;;;;;;;6.07;5.47;;;;;;;8.35;80.01;95241.22;5074245;28;20262;-70
2023/05/12 06:27:45;;;;;;;5.32;4.93;;;;;;;8.36;79.67;95239.28;5075312;28;20193;-71
2023/05/12 06:30:51;;;;;;;5.50;5.00;;;;;;;8.31;79.37;95247.69;5074947;28;20207;-71
2023/05/12 06:33:57;;;;;;;5.75;5.25;;;;;;;8.28;79.57;95240.13;5076393;28;20254;-70
2023/05/12 06:36:25;;;;;;;6.10;5.50;;;;;;;8.35;79.29;95245.91;5075408;28;20292;-71
2023/05/12 06:38:52;;;;;;;6.30;5.70;;;;;;;8.35;79.35;95249.47;5075484;28;20702;-71
2023/05/12 06:41:20;;;;;;;5.65;5.15;;;;;;;8.45;79.18;95253.78;5075233;28;20267;-70
2023/05/12 06:43:48;;;;;;;6.00;5.50;;;;;;;8.52;79.16;95256.81;5075823;28;20604;-70
2023/05/12 06:46:15;;;;;;;6.13;5.35;;;;;;;8.55;78.48;95249.84;5075931;28;20572;-70
2023/05/12 06:48:42;;;;;;;5.65;5.15;;;;;;;8.60;78.46;95250.41;5075667;28;20203;-70
2023/05/12 06:51:11;;;;;;;6.18;5.68;;;;;;;8.64;77.61;95256.06;5076128;28;20201;-69
2023/05/12 06:53:43;;;;;;;6.40;5.28;;;;;;;8.68;77.98;95259.78;5075227;28;20291;-70
2023/05/12 06:56:15;;;;;;;6.78;5.95;;;;;;;8.78;77.79;95264.03;5075779;28;20193;-70
2023/05/12 06:58:45;;;;;;;6.55;6.00;;;;;;;8.64;77.01;95250.56;5075317;28;20258;-69
2023/05/12 07:01:13;;;;;;;5.65;5.00;;;;;;;8.67;77.34;95249.88;5074749;28;20193;-68
2023/05/12 07:03:41;;;;;;;6.30;5.70;;;;;;;8.57;77.12;95245.63;5074160;28;20204;-68
2023/05/12 07:06:12;;;;;;;5.55;5.05;;;;;;;8.55;77.23;95252.59;5075376;28;20177;-68
2023/05/12 07:08:43;;;;;;;5.70;4.90;;;;;;;8.67;77.21;95247.13;5075410;28;20186;-68
2023/05/12 07:11:10;;;;;;;6.22;5.63;;;;;;;8.79;77.13;95255.47;5074747;28;20193;-68
2023/05/12 07:13:37;;;;;;;6.10;5.70;;;;;;;8.89;76.78;95252.28;5073986;28;20233;-68
2023/05/12 07:16:04;;;;;;;6.05;5.50;;;;;;;8.82;76.15;95257.53;5075657;28;20211;-68
2023/05/12 07:18:31;;;;;;;6.13;5.60;;;;;;;8.84;76.45;95252.50;5075142;28;20278;-68
2023/05/12 07:21:01;;;;;;;5.85;5.22;;;;;;;8.87;75.86;95262.03;5074152;28;20209;-69
2023/05/12 07:23:28;;;;;;;7.13;6.50;;;;;;;8.82;76.23;95251.22;5074919;28;20217;-68
2023/05/12 07:25:57;;;;;;;6.32;5.72;;;;;;;8.88;76.27;95255.38;5075290;28;20192;-68
2023/05/12 07:28:23;;;;;;;6.47;5.97;;;;;;;8.86;76.30;95260.41;5075231;28;20189;-68
2023/05/12 07:30:50;;;;;;;6.82;6.03;;;;;;;8.84;76.50;95260.75;5078269;28;20235;-69
2023/05/12 07:33:18;;;;;;;7.05;6.45;;;;;;;8.82;76.19;95260.28;5079623;28;20274;-70
2023/05/12 07:35:48;;;;;;;7.43;6.82;;;;;;;8.87;76.66;95262.03;5079243;28;20274;-70
2023/05/12 07:38:19;;;;;;;6.53;6.03;;;;;;;8.97;76.38;95264.38;5080963;28;20189;-70
2023/05/12 07:40:46;;;;;;;7.13;6.55;;;;;;;9.01;76.13;95264.50;5081056;28;20213;-70
2023/05/12 07:43:19;;;;;;;7.15;6.45;;;;;;;9.06;76.14;95265.06;5081636;28;20239;-70
2023/05/12 07:45:48;;;;;;;6.60;5.90;;;;;;;8.98;75.58;95263.22;5081559;28;20273;-70
2023/05/12 07:48:18;;;;;;;6.43;5.93;;;;;;;8.92;75.99;95257.09;5079282;28;20193;-68
2023/05/12 07:50:48;;;;;;;5.95;5.35;;;;;;;9.25;78.25;95261.00;5078793;28;20188;-68
2023/05/12 07:53:14;;;;;;;5.95;5.47;;;;;;;9.54;77.26;95255.34;5077846;28;20212;-69
2023/05/12 07:55:42;;;;;;;5.68;5.07;;;;;;;9.75;74.81;95257.22;5078931;28;20193;-73
2023/05/12 07:58:09;;;;;;;6.07;5.47;;;;;;;9.65;74.52;95251.00;5078353;28;20196;-73
2023/05/12 08:00:43;;;;;;;6.40;5.90;;;;;;;9.63;74.76;95247.78;5078438;28;20218;-72
2023/05/12 08:03:15;;;;;;;5.68;5.20;;;;;;;9.52;74.86;95249.38;5079441;28;20193;-73
2023/05/12 08:05:43;;;;;;;5.47;4.97;;;;;;;9.49;75.21;95243.75;5078851;28;20629;-73
2023/05/12 08:08:15;;;;;;;5.32;4.80;;;;;;;9.32;75.29;95247.50;5078484;28;20194;-73
2023/05/12 08:10:43;;;;;;;5.22;4.82;;;;;;;9.28;75.52;95255.63;5080219;28;20200;-73
2023/05/12 08:13:10;;;;;;;5.90;5.40;;;;;;;9.41;75.20;95250.97;5079834;28;20740;-73
2023/05/12 08:15:38;;;;;;;5.85;5.40;;;;;;;9.28;74.84;95252.06;5078750;28;20208;-73
2023/05/12 08:18:05;;;;;;;6.22;5.63;;;;;;;9.29;74.88;95251.72;5078500;28;20247;-73
2023/05/12 08:20:32;;;;;;;5.72;5.22;;;;;;;9.22;74.67;95248.72;5078202;28;20278;-73
2023/05/12 08:23:01;;;;;;;5.78;5.28;;;;;;;9.17;74.08;95262.72;5078761;28;20601;-73
2023/05/12 08:25:30;;;;;;;5.85;5.30;;;;;;;9.15;74.99;95254.81;5078267;28;20227;-73
2023/05/12 08:27:58;;;;;;;6.05;5.55;;;;;;;9.25;74.50;95253.56;5079025;28;20189;-73
2023/05/12 08:30:28;;;;;;;6.05;5.57;;;;;;;9.39;74.46;95253.25;5078531;28;20636;-73
2023/05/12 08:32:57;;;;;;;6.53;5.80;;;;;;;9.42;74.42;95257.28;5078429;28;20683;-73
2023/05/12 08:35:26;;;;;;;6.22;5.65;;;;;;;9.47;74.55;95255.09;5078670;28;20177;-73
2023/05/12 08:37:53;;;;;;;6.72;5.82;;;;;;;9.52;73.66;95251.34;5079132;28;20197;-73
2023/05/12 08:40:22;;;;;;;7.03;6.32;;;;;;;9.59;73.61;95260.63;5078927;28;20270;-73
2023/05/12 08:42:54;;;;;;;7.05;5.80;;;;;;;9.63;73.17;95261.56;5078670;28;20189;-73
2023/05/12 08:45:22;;;;;;;6.25;5.75;;;;;;;9.64;72.89;95251.34;5079036;28;20216;-73
2023/05/12 08:47:50;;;;;;;7.45;6.78;;;;;;;9.69;73.18;95259.38;5079104;28;20189;-73
2023/05/12 08:50:23;;;;;;;5.78;5.28;;;;;;;9.79;73.04;95247.09;5078346;28;20189;-74
2023/05/12 08:52:50;;;;;;;6.10;5.55;;;;;;;9.87;71.46;95251.69;5078356;28;20204;-73
2023/05/12 08:55:18;;;;;;;6.20;5.72;;;;;;;9.95;71.80;95255.47;5079114;28;20640;-73
2023/05/12 08:57:47;;;;;;;5.90;5.28;;;;;;;9.91;71.28;95249.84;5079142;28;20279;-73
2023/05/12 09:00:15;;;;;;;6.63;5.97;;;;;;;9.97;71.35;95254.00;5079132;28;20283;-72
2023/05/12 09:02:43;;;;;;;6.32;5.82;;;;;;;10.14;70.90;95250.22;5077385;28;20270;-73
2023/05/12 09:05:12;;;;;;;6.05;5.55;;;;;;;10.24;71.03;95251.69;5080461;28;20201;-73
2023/05/12 09:07:43;;;;;;;6.38;5.78;;;;;;;10.30;70.30;95247.56;5080168;28;20201;-73
2023/05/12 09:10:15;;;;;;;6.47;5.82;;;;;;;10.41;70.56;95245.94;5081087;28;20181;-73
2023/05/12 09:12:50;;;;;;;6.82;6.18;;;;;;;10.51;69.83;95241.91;5077980;28;20285;-74
2023/05/12 09:15:20;;;;;;;6.82;6.13;;;;;;;10.56;68.59;95247.97;5077766;28;20253;-72
2023/05/12 09:17:48;;;;;;;6.68;6.05;;;;;;;10.65;69.93;95239.59;5077769;28;20193;-72
2023/05/12 09:20:18;;;;;;;6.22;5.55;;;;;;;10.69;68.88;95234.19;5078161;28;20215;-72
2023/05/12 09:22:48;;;;;;;6.38;5.78;;;;;;;10.75;68.80;95236.34;5077833;28;20193;-72
2023/05/12 09:25:20;;;;;;;6.55;5.97;;;;;;;10.80;68.23;95227.81;5077300;28;20201;-73
2023/05/12 09:27:56;;;;;;;5.80;5.32;;;;;;;10.79;67.93;95226.22;5078843;28;20181;-73
2023/05/12 09:30:36;;;;;;;7.07;6.22;;;;;;;10.83;67.97;95223.56;5078154;28;20181;-73
2023/05/12 09:33:09;;;;;;;6.60;5.82;;;;;;;10.90;67.71;95218.25;5077960;28;20205;-73
2023/05/12 09:35:40;;;;;;;6.60;6.00;;;;;;;10.96;67.55;95221.53;5078551;28;20225;-72
2023/05/12 09:38:12;;;;;;;8.30;7.50;;;;;;;10.98;67.47;95222.00;5079077;28;20520;-73
2023/05/12 09:40:46;;;;;;;5.57;5.13;;;;;;;11.01;67.19;95229.56;5077341;28;20661;-72
2023/05/12 09:43:12;;;;;;;6.40;5.90;;;;;;;11.17;67.77;95232.38;5078678;28;20185;-72
2023/05/12 09:45:42;;;;;;;6.80;6.22;;;;;;;11.22;67.08;95230.16;5077030;28;20552;-72
2023/05/12 09:48:10;;;;;;;5.20;4.78;;;;;;;11.20;65.51;95243.50;5077917;28;20197;-72
2023/05/12 09:50:49;;;;;;;5.20;4.80;;;;;;;11.32;65.31;95234.34;5076425;28;20224;-72
2023/05/12 09:53:21;;;;;;;5.85;5.35;;;;;;;11.40;65.96;95229.81;5075981;28;20611;-72
2023/05/12 09:55:48;;;;;;;6.60;6.00;;;;;;;11.52;66.01;95227.00;5077207;28;20251;-72
2023/05/12 09:58:16;;;;;;;5.90;5.40;;;;;;;11.64;63.69;95235.19;5076827;28;20262;-72
2023/05/12 10:00:43;;;;;;;6.72;6.13;;;;;;;11.79;65.45;95228.06;5077916;28;20201;-72
2023/05/12 10:03:13;;;;;;;6.93;5.63;;;;;;;11.83;64.67;95226.19;5076773;28;20192;-72
2023/05/12 10:05:51;;;;;;;6.40;5.80;;;;;;;11.87;64.15;95218.81;5076085;28;20205;-72
2023/05/12 10:08:30;;;;;;;6.68;5.40;;;;;;;11.96;63.73;95215.88;5077222;28;20244;-72
2023/05/12 10:11:03;;;;;;;6.13;5.60;;;;;;;12.09;63.25;95216.56;5076711;28;20236;-72
2023/05/12 10:13:30;;;;;;;6.00;5.40;;;;;;;12.03;62.73;95214.09;5076747;28;20294;-72
2023/05/12 10:15:58;;;;;;;5.97;5.47;;;;;;;12.06;63.16;95214.56;5076733;28;20200;-72
2023/05/12 10:18:25;;;;;;;5.22;4.82;;;;;;;12.15;61.86;95218.72;5077455;28;20197;-73
2023/05/12 10:20:53;;;;;;;5.03;4.50;;;;;;;12.08;61.15;95226.03;5075835;28;20209;-72
2023/05/12 10:23:23;;;;;;;5.10;4.70;;;;;;;12.03;61.54;95222.38;5076914;28;20208;-72
2023/05/12 10:26:00;;;;;;;5.00;4.60;;;;;;;11.99;61.95;95213.22;5076884;28;20549;-73
2023/05/12 10:28:30;;;;;;;6.38;4.78;;;;;;;12.05;61.13;95213.72;5076391;28;20201;-72
2023/05/12 10:30:58;;;;;;;5.00;4.60;;;;;;;11.95;60.19;95209.56;5076088;28;20197;-72
2023/05/12 10:33:29;;;;;;;4.95;4.55;;;;;;;11.99;61.07;95213.22;5075606;28;20200;-72
2023/05/12 10:35:57;;;;;;;5.60;4.70;;;;;;;12.16;61.79;95211.22;5075162;28;20207;-70
2023/05/12 10:38:28;;;;;;;5.40;4.88;;;;;;;12.46;61.09;95212.31;5077794;28;20189;-73
2023/05/12 10:40:58;;;;;;;6.30;5.72;;;;;;;12.84;63.66;95210.75;5076290;28;20221;-73
2023/05/12 10:43:33;;;;;;;5.00;4.60;;;;;;;12.95;59.68;95208.19;5076587;28;20250;-72
2023/05/12 10:46:12;;;;;;;5.13;4.60;;;;;;;12.93;58.24;95205.00;5076303;28;20207;-66
2023/05/12 10:48:53;;;;;;;4.78;4.13;;;;;;;12.92;58.74;95208.91;5075356;28;20220;-66
2023/05/12 10:51:21;;;;;;;4.78;3.72;;;;;;;12.93;57.91;95205.00;5074522;28;20605;-66
2023/05/12 10:53:53;;;;;;;5.03;4.63;;;;;;;12.95;58.80;95203.44;5075155;28;20597;-66
2023/05/12 10:56:28;;;;;;;4.70;4.20;;;;;;;12.98;58.51;95204.69;5075083;28;20201;-66
2023/05/12 10:59:18;;;;;;;5.00;4.60;;;;;;;12.73;58.34;95196.69;5075227;28;20200;-66
2023/05/12 11:02:00;;;;;;;5.07;4.57;;;;;;;12.70;59.52;95205.69;5075179;28;20513;-66
2023/05/12 11:04:42;;;;;;;4.38;3.97;;;;;;;12.69;59.00;95197.78;5074170;28;20655;-67
2023/05/12 11:07:12;;;;;;;5.45;4.55;;;;;;;12.66;59.53;95198.50;5075575;28;20207;-67
2023/05/12 11:09:41;;;;;;;4.82;4.35;;;;;;;12.71;58.69;95201.00;5075795;28;20213;-65
2023/05/12 11:12:10;;;;;;;4.88;4.47;;;;;;;12.80;58.16;95212.63;5075769;28;20266;-65
2023/05/12 11:14:40;;;;;;;5.28;4.72;;;;;;;12.86;57.89;95211.19;5058496;28;20196;-65
2023/05/12 11:17:08;;;;;;;5.32;4.80;;;;;;;12.83;58.45;95208.34;5074983;28;20197;-65
2023/05/12 11:19:35;;;;;;;5.40;4.90;;;;;;;12.80;59.22;95207.09;5075107;28;20217;-64
2023/05/12 11:22:06;;;;;;;5.72;4.50;;;;;;;12.73;58.18;95207.75;5075629;28;20197;-70
2023/05/12 11:24:32;;;;;;;5.60;5.18;;;;;;;12.74;59.00;95206.59;5075538;28;20193;-70
2023/05/12 11:27:00;;;;;;;5.72;5.25;;;;;;;12.74;57.44;95214.91;5075770;28;20196;-68
2023/05/12 11:29:27;;;;;;;5.47;4.95;;;;;;;12.74;58.43;95211.31;5075823;28;20193;-69
2023/05/12 11:31:57;;;;;;;5.05;4.35;;;;;;;12.82;58.29;95209.50;5075640;28;20193;-68
2023/05/12 11:34:27;;;;;;;5.20;4.70;;;;;;;12.82;58.56;95210.31;5074461;28;20207;-66
2023/05/12 11:36:56;;;;;;;5.30;4.40;;;;;;;12.83;58.18;95208.34;5074294;28;20201;-66
2023/05/12 11:39:24;;;;;;;6.15;4.07;;;;;;;12.83;57.78;95213.88;5074986;28;20204;-66
2023/05/12 11:41:51;;;;;;;5.47;4.95;;;;;;;12.79;57.36;95213.81;5075171;28;20533;-77
2023/05/12 11:44:21;;;;;;;5.07;4.68;;;;;;;12.81;57.97;95211.47;5075585;28;20200;-72
2023/05/12 11:46:55;;;;;;;4.70;4.30;;;;;;;12.84;57.90;95205.19;5075247;28;20225;-71
2023/05/12 11:49:22;;;;;;;4.65;4.22;;;;;;;12.92;58.81;95212.47;5074920;28;20200;-73
2023/05/12 11:51:51;;;;;;;4.22;3.83;;;;;;;12.94;57.02;95204.63;5076330;28;20197;-70
2023/05/12 11:54:19;;;;;;;5.03;4.63;;;;;;;13.00;57.00;95208.72;5075506;28;20605;-71
2023/05/12 11:56:49;;;;;;;5.13;4.63;;;;;;;13.01;56.97;95209.50;5075777;28;20197;-70
2023/05/12 11:59:30;;;;;;;5.47;4.88;;;;;;;12.96;57.40;95207.84;5075345;28;20224;-71
2023/05/12 12:01:57;;;;;;;5.15;4.65;;;;;;;12.98;57.18;95211.03;5075759;28;20721;-72
2023/05/12 12:04:34;;;;;;;4.75;4.35;;;;;;;13.02;56.93;95205.56;5075467;28;20205;-71
2023/05/12 12:07:01;;;;;;;5.30;4.80;;;;;;;13.06;56.35;95195.34;5075124;28;20612;-71
2023/05/12 12:09:32;;;;;;;4.88;4.13;;;;;;;13.05;56.27;95198.50;5074621;28;20201;-70
2023/05/12 12:11:59;;;;;;;4.93;4.20;;;;;;;13.05;55.59;95207.59;5075777;28;20251;-69